Time;durP1;ratioP1;P1;durP2;ratioP2;P2;SDS_P1;SDS_P2;PMS_P1;PMS_P2;Temp;Humidity;BMP_temperature;BMP_pressure;BME280_temperature;BME280_humidity;BME280_pressure;Samples;Min_cycle;Max_cycle;Signal;HPM_P1;HPM_P2
2022/07/16 00:03:26;;;;;;;2.83;1.98;;;15.80;99.90;;;;;;5077578;28;20154;-78
2022/07/16 00:05:54;;;;;;;6.90;2.65;;;15.80;99.90;;;;;;5075071;28;20127;-78
2022/07/16 00:08:20;;;;;;;3.83;2.28;;;15.80;99.90;;;;;;5072328;28;20048;-78
2022/07/16 00:10:46;;;;;;;3.38;2.08;;;15.70;99.90;;;;;;5074661;28;20035;-79
2022/07/16 00:13:12;;;;;;;4.10;2.38;;;15.70;99.90;;;;;;5089289;28;20046;-78
2022/07/16 00:15:38;;;;;;;3.78;2.13;;;15.70;99.90;;;;;;5101404;28;20039;-78
2022/07/16 00:20:47;;;;;;;3.72;2.30;;;15.60;99.90;;;;;;5091151;28;20063;-79
2022/07/16 00:23:13;;;;;;;4.30;2.65;;;15.60;99.90;;;;;;5072050;28;20100;-78
2022/07/16 00:25:39;;;;;;;4.15;2.67;;;15.60;99.90;;;;;;5069676;28;20061;-78
2022/07/16 00:28:04;;;;;;;3.97;2.35;;;15.60;99.90;;;;;;5061224;28;20069;-78
2022/07/16 00:30:30;;;;;;;4.35;2.35;;;15.60;99.90;;;;;;5038817;28;20098;-78
2022/07/16 00:32:56;;;;;;;2.72;2.20;;;15.60;99.90;;;;;;5074811;28;20054;-78
2022/07/16 00:35:22;;;;;;;4.30;2.30;;;15.60;99.90;;;;;;5073451;28;20115;-77
2022/07/16 00:37:47;;;;;;;4.30;2.40;;;15.60;99.90;;;;;;5091425;28;20388;-77
2022/07/16 00:40:13;;;;;;;3.95;2.50;;;15.50;99.90;;;;;;5074472;28;20453;-77
2022/07/16 00:42:39;;;;;;;6.40;2.55;;;15.50;99.90;;;;;;5058225;28;20134;-78
2022/07/16 00:45:05;;;;;;;5.43;2.60;;;15.50;99.90;;;;;;5071533;28;20031;-77
2022/07/16 00:47:31;;;;;;;3.15;2.50;;;15.50;99.90;;;;;;5071405;28;20046;-78
2022/07/16 00:49:56;;;;;;;3.58;2.42;;;15.50;99.90;;;;;;5072234;28;20035;-78
2022/07/16 00:52:23;;;;;;;4.00;2.30;;;15.60;99.90;;;;;;5071645;28;20286;-78
2022/07/16 00:54:49;;;;;;;7.68;2.70;;;15.60;99.90;;;;;;5074156;28;20036;-78
2022/07/16 00:57:15;;;;;;;4.53;2.45;;;15.60;99.90;;;;;;5055852;28;20111;-77
2022/07/16 00:59:41;;;;;;;6.20;2.75;;;15.60;99.90;;;;;;5087822;28;20119;-77
2022/07/16 01:02:07;;;;;;;4.68;2.67;;;15.60;99.90;;;;;;5088546;28;20039;-78
2022/07/16 01:04:34;;;;;;;4.82;2.65;;;15.60;99.90;;;;;;5055016;28;20455;-78
2022/07/16 01:07:00;;;;;;;4.43;2.63;;;15.60;99.90;;;;;;5090929;28;20114;-77
2022/07/16 01:09:26;;;;;;;4.00;2.45;;;15.60;99.90;;;;;;5060055;28;20055;-77
2022/07/16 01:11:53;;;;;;;3.92;2.63;;;15.60;99.90;;;;;;5093484;28;20044;-78
2022/07/16 01:14:20;;;;;;;6.07;2.60;;;15.60;99.90;;;;;;5084755;28;20039;-78
2022/07/16 01:16:45;;;;;;;4.15;2.35;;;15.60;99.90;;;;;;5091205;28;20039;-78
2022/07/16 01:19:12;;;;;;;5.63;2.40;;;15.60;99.90;;;;;;5059849;28;20039;-78
2022/07/16 01:21:39;;;;;;;6.13;2.40;;;15.60;99.90;;;;;;5091790;28;20035;-78
2022/07/16 01:24:05;;;;;;;5.47;2.65;;;15.60;99.90;;;;;;5044237;28;20063;-77
2022/07/16 01:26:31;;;;;;;4.18;2.17;;;15.60;99.90;;;;;;5077474;28;20070;-78
2022/07/16 01:28:56;;;;;;;3.58;2.50;;;15.60;99.90;;;;;;5075718;28;20035;-78
2022/07/16 01:31:22;;;;;;;2.95;2.10;;;15.50;99.90;;;;;;5092607;28;20071;-78
2022/07/16 01:34:24;;;;;;;4.00;2.50;;;15.50;99.90;;;;;;5078197;28;20051;-80
2022/07/16 01:36:34;;;;;;;4.35;2.55;;;15.50;99.90;;;;;;5093628;28;20767;-78
2022/07/16 01:39:00;;;;;;;5.13;2.63;;;15.50;99.90;;;;;;5077789;28;20110;-78
2022/07/16 01:41:25;;;;;;;4.50;2.83;;;15.50;99.90;;;;;;5077176;28;20027;-78
2022/07/16 01:43:51;;;;;;;3.00;2.40;;;15.50;99.90;;;;;;5093494;28;20046;-78
2022/07/16 01:46:17;;;;;;;2.60;2.40;;;15.50;99.90;;;;;;5093405;28;20028;-77
2022/07/16 01:48:42;;;;;;;5.03;3.05;;;15.50;99.90;;;;;;5060751;28;20047;-78
2022/07/16 01:51:08;;;;;;;5.88;3.35;;;15.50;99.90;;;;;;5061043;28;20641;-79
2022/07/16 01:53:34;;;;;;;4.07;2.90;;;15.50;99.90;;;;;;5094312;28;20400;-79
2022/07/16 01:56:01;;;;;;;6.15;3.20;;;15.50;99.90;;;;;;5088731;28;20496;-78
2022/07/16 01:58:27;;;;;;;6.57;3.17;;;15.70;99.90;;;;;;5089966;28;20036;-78
2022/07/16 02:00:53;;;;;;;5.93;2.90;;;15.40;99.90;;;;;;5073481;28;20111;-78
2022/07/16 02:03:19;;;;;;;4.38;3.15;;;15.30;99.90;;;;;;5076522;28;20543;-77
2022/07/16 02:05:46;;;;;;;5.25;3.42;;;15.20;99.90;;;;;;5077807;28;20043;-77
2022/07/16 02:08:12;;;;;;;7.53;3.90;;;15.10;99.90;;;;;;5061684;28;20035;-77
2022/07/16 02:10:38;;;;;;;4.38;3.97;;;15.10;99.90;;;;;;5077827;28;20122;-77
2022/07/16 02:13:05;;;;;;;5.45;3.90;;;15.00;99.90;;;;;;5093432;28;20044;-77
2022/07/16 02:15:31;;;;;;;7.40;3.90;;;15.00;99.90;;;;;;5078046;28;20031;-77
2022/07/16 02:17:57;;;;;;;7.03;3.75;;;15.00;99.90;;;;;;5085699;28;20400;-77
2022/07/16 02:20:23;;;;;;;9.35;4.47;;;15.00;99.90;;;;;;5059965;28;20036;-77
2022/07/16 02:22:49;;;;;;;6.22;3.90;;;14.90;99.90;;;;;;5095282;28;20035;-77
2022/07/16 02:25:15;;;;;;;6.68;4.13;;;15.00;99.90;;;;;;5091879;28;20097;-77
2022/07/16 02:28:06;;;;;;;6.00;4.35;;;15.00;99.90;;;;;;5056425;28;20119;-77
2022/07/16 02:30:33;;;;;;;6.72;4.15;;;15.00;99.90;;;;;;5075324;28;20478;-77
2022/07/16 02:32:59;;;;;;;8.35;4.50;;;14.90;99.90;;;;;;5069372;28;20048;-77
2022/07/16 02:35:25;;;;;;;5.53;4.10;;;14.90;99.90;;;;;;5088582;28;20047;-77
2022/07/16 02:37:51;;;;;;;5.70;4.40;;;14.90;99.90;;;;;;5060039;28;20067;-77
2022/07/16 02:40:17;;;;;;;7.13;4.53;;;14.90;99.90;;;;;;5069534;28;20039;-77
2022/07/16 02:42:43;;;;;;;5.38;4.40;;;14.90;99.90;;;;;;5078912;28;20126;-77
2022/07/16 02:45:10;;;;;;;5.40;4.18;;;14.90;99.90;;;;;;5095483;28;20457;-77
2022/07/16 02:47:36;;;;;;;6.07;4.05;;;14.90;99.90;;;;;;5077659;28;20047;-77
2022/07/16 02:50:04;;;;;;;5.05;3.95;;;14.90;99.90;;;;;;5065818;28;20040;-77
2022/07/16 02:52:29;;;;;;;7.28;3.80;;;14.90;99.90;;;;;;5077955;28;20039;-77
2022/07/16 02:54:55;;;;;;;4.88;3.80;;;14.80;99.90;;;;;;5071243;28;20111;-78
2022/07/16 02:57:21;;;;;;;8.13;4.03;;;14.80;99.90;;;;;;5089083;28;20039;-77
2022/07/16 02:59:46;;;;;;;6.60;3.78;;;14.80;99.90;;;;;;5054105;28;20040;-76
2022/07/16 03:02:12;;;;;;;6.13;3.70;;;14.80;99.90;;;;;;5093874;28;20038;-78
2022/07/16 03:04:38;;;;;;;5.15;3.45;;;14.80;99.90;;;;;;5076452;28;20027;-77
2022/07/16 03:07:04;;;;;;;4.75;3.88;;;14.80;99.90;;;;;;5067146;28;20043;-77
2022/07/16 03:09:30;;;;;;;6.22;3.63;;;14.80;99.90;;;;;;5087840;28;20043;-77
2022/07/16 03:11:55;;;;;;;5.68;3.22;;;14.80;99.90;;;;;;5093756;28;20507;-78
2022/07/16 03:14:21;;;;;;;5.20;3.55;;;14.80;99.90;;;;;;5077695;28;20040;-77
2022/07/16 03:16:47;;;;;;;9.07;3.38;;;14.80;99.90;;;;;;5055687;28;20036;-78
2022/07/16 03:19:12;;;;;;;6.88;3.50;;;14.70;99.90;;;;;;5061327;28;20031;-77
2022/07/16 03:21:38;;;;;;;6.20;3.28;;;14.70;99.90;;;;;;5058025;28;20119;-78
2022/07/16 03:24:04;;;;;;;5.22;3.28;;;14.70;99.90;;;;;;5076393;28;20035;-78
2022/07/16 03:26:30;;;;;;;5.78;3.65;;;14.60;99.90;;;;;;5057595;28;20519;-78
2022/07/16 03:28:56;;;;;;;5.30;3.53;;;14.60;99.90;;;;;;5057789;28;20489;-78
2022/07/16 03:31:21;;;;;;;5.35;3.20;;;14.60;99.90;;;;;;5072146;28;20417;-77
2022/07/16 03:33:48;;;;;;;6.75;3.75;;;14.50;99.90;;;;;;5072817;28;20044;-77
2022/07/16 03:36:14;;;;;;;5.65;3.80;;;14.60;99.90;;;;;;5072408;28;20040;-78
2022/07/16 03:41:25;;;;;;;5.93;3.60;;;14.50;99.90;;;;;;5061346;28;20044;-78
2022/07/16 03:43:51;;;;;;;6.40;3.63;;;14.50;99.90;;;;;;5066628;28;20121;-78
2022/07/16 03:46:17;;;;;;;4.45;3.72;;;14.50;99.90;;;;;;5069807;28;20067;-78
2022/07/16 03:48:44;;;;;;;6.95;3.85;;;14.40;99.90;;;;;;5052175;28;20089;-78
2022/07/16 03:51:10;;;;;;;7.47;4.07;;;14.40;99.90;;;;;;5068094;28;20120;-78
2022/07/16 03:53:37;;;;;;;6.50;3.80;;;14.40;99.90;;;;;;5069640;28;20119;-78
2022/07/16 03:56:03;;;;;;;4.65;3.65;;;14.40;99.90;;;;;;5046755;28;20087;-77
2022/07/16 03:58:29;;;;;;;8.52;3.88;;;14.40;99.90;;;;;;5082016;28;20043;-78
2022/07/16 04:00:55;;;;;;;8.00;3.85;;;14.40;99.90;;;;;;5066308;28;20028;-78
2022/07/16 04:03:22;;;;;;;10.25;4.05;;;14.40;99.90;;;;;;5087485;28;20170;-77
2022/07/16 04:05:47;;;;;;;6.38;3.85;;;14.40;99.90;;;;;;5086755;28;20040;-78
2022/07/16 04:08:13;;;;;;;6.47;3.75;;;14.40;99.90;;;;;;5039468;28;20036;-77
2022/07/16 04:10:39;;;;;;;9.38;4.32;;;14.40;99.90;;;;;;5049389;28;20405;-78
2022/07/16 04:13:05;;;;;;;6.25;3.80;;;14.40;99.90;;;;;;5069852;28;20076;-77
2022/07/16 04:15:31;;;;;;;8.80;3.60;;;14.40;99.90;;;;;;5085447;28;20040;-77
2022/07/16 04:17:56;;;;;;;8.35;4.28;;;14.40;99.90;;;;;;5079179;28;20032;-78
2022/07/16 04:20:22;;;;;;;9.30;3.28;;;14.30;99.90;;;;;;5070677;28;20036;-77
2022/07/16 04:22:48;;;;;;;6.65;3.83;;;14.40;99.90;;;;;;5070719;28;20237;-77
2022/07/16 04:25:14;;;;;;;7.90;3.75;;;14.30;99.90;;;;;;5053996;28;20032;-78
2022/07/16 04:27:41;;;;;;;5.55;3.30;;;14.30;99.90;;;;;;5078416;28;20032;-78
2022/07/16 04:30:08;;;;;;;6.35;3.40;;;14.30;99.90;;;;;;5072408;28;20055;-77
2022/07/16 04:32:36;;;;;;;6.35;3.40;;;14.30;99.90;;;;;;5087909;28;20040;-78
2022/07/16 04:35:02;;;;;;;7.18;3.30;;;14.30;99.90;;;;;;5090857;28;20040;-77
2022/07/16 04:37:28;;;;;;;6.63;3.20;;;14.30;99.90;;;;;;5088272;28;20032;-78
2022/07/16 04:39:53;;;;;;;7.50;3.08;;;14.30;99.90;;;;;;5092137;28;20469;-77
2022/07/16 04:42:19;;;;;;;6.05;2.97;;;14.30;99.90;;;;;;5074726;28;20589;-78
2022/07/16 04:44:45;;;;;;;6.20;3.50;;;14.30;99.90;;;;;;5071398;28;20044;-78
2022/07/16 04:47:11;;;;;;;4.20;2.75;;;14.30;99.90;;;;;;5052716;28;20066;-78
2022/07/16 04:49:36;;;;;;;8.77;2.90;;;14.30;99.90;;;;;;5086162;28;20036;-78
2022/07/16 04:52:02;;;;;;;9.55;3.28;;;14.30;99.90;;;;;;5054392;28;20097;-78
2022/07/16 04:54:28;;;;;;;4.93;2.75;;;14.30;99.90;;;;;;5088027;28;20048;-78
2022/07/16 04:56:54;;;;;;;6.22;2.83;;;14.30;99.90;;;;;;5045518;28;20036;-78
2022/07/16 04:59:20;;;;;;;6.80;2.95;;;14.30;99.90;;;;;;5072335;28;20582;-78
2022/07/16 05:01:46;;;;;;;7.70;3.00;;;14.30;99.90;;;;;;5071790;28;20587;-77
2022/07/16 05:04:11;;;;;;;6.18;2.80;;;14.30;99.90;;;;;;5057016;28;20042;-78
2022/07/16 05:06:37;;;;;;;6.32;3.05;;;14.30;99.90;;;;;;5059602;28;20036;-77
2022/07/16 05:09:03;;;;;;;6.07;2.50;;;14.30;99.90;;;;;;5073622;28;20050;-78
2022/07/16 05:11:29;;;;;;;5.25;2.80;;;14.30;99.90;;;;;;5071591;28;20047;-77
2022/07/16 05:13:55;;;;;;;6.07;3.00;;;14.30;99.90;;;;;;5073433;28;20069;-77
2022/07/16 05:16:22;;;;;;;9.30;2.70;;;14.30;99.90;;;;;;5084238;28;20553;-77
2022/07/16 05:18:48;;;;;;;3.60;2.42;;;14.30;99.90;;;;;;5073630;28;20039;-77
2022/07/16 05:21:14;;;;;;;8.13;2.92;;;14.30;99.90;;;;;;5088845;28;20131;-77
2022/07/16 05:23:40;;;;;;;5.88;2.25;;;14.30;99.90;;;;;;5053543;28;20032;-77
2022/07/16 05:26:06;;;;;;;9.60;2.72;;;14.30;99.90;;;;;;5054205;28;20061;-77
2022/07/16 05:28:31;;;;;;;4.25;2.10;;;14.30;99.90;;;;;;5072095;28;20119;-77
2022/07/16 05:30:57;;;;;;;8.57;2.40;;;14.30;99.90;;;;;;5083345;28;20469;-78
2022/07/16 05:33:23;;;;;;;8.40;2.95;;;14.40;99.90;;;;;;5073056;28;20043;-78
2022/07/16 05:35:49;;;;;;;7.95;2.70;;;14.40;99.90;;;;;;5089089;28;20096;-78
2022/07/16 05:38:15;;;;;;;5.50;2.60;;;14.40;99.90;;;;;;5055971;28;20032;-78
2022/07/16 05:40:41;;;;;;;5.75;2.42;;;14.40;99.90;;;;;;5087966;28;21682;-77
2022/07/16 05:43:07;;;;;;;7.03;2.13;;;14.40;99.90;;;;;;5060116;28;20027;-78
2022/07/16 05:45:32;;;;;;;4.38;2.22;;;14.50;99.90;;;;;;5052416;28;20043;-78
2022/07/16 05:47:58;;;;;;;7.85;2.22;;;14.50;99.90;;;;;;5056993;28;20493;-78
2022/07/16 05:50:24;;;;;;;7.88;2.53;;;14.60;99.90;;;;;;5049194;28;20169;-78
2022/07/16 05:52:50;;;;;;;4.93;2.40;;;14.70;99.90;;;;;;5085213;28;20052;-78
2022/07/16 05:55:16;;;;;;;7.43;2.35;;;14.80;99.90;;;;;;5055981;28;20044;-78
2022/07/16 05:57:42;;;;;;;7.00;2.40;;;14.80;99.90;;;;;;5059998;28;20036;-78
2022/07/16 06:00:10;;;;;;;7.55;2.38;;;14.80;99.90;;;;;;5059238;28;20036;-78
2022/07/16 06:02:37;;;;;;;7.50;2.10;;;14.80;99.90;;;;;;5058651;28;20498;-78
2022/07/16 06:05:03;;;;;;;4.20;2.20;;;14.80;99.90;;;;;;5075132;28;20039;-77
2022/07/16 06:07:29;;;;;;;6.47;2.80;;;14.80;99.90;;;;;;5073719;28;20079;-77
2022/07/16 06:09:54;;;;;;;5.63;2.17;;;14.80;99.90;;;;;;5076141;28;20561;-78
2022/07/16 06:12:20;;;;;;;6.28;2.45;;;14.80;99.90;;;;;;5093585;28;20074;-78
2022/07/16 06:14:46;;;;;;;6.88;2.65;;;14.80;99.90;;;;;;5040805;28;20046;-78
2022/07/16 06:17:13;;;;;;;8.07;2.92;;;14.80;99.90;;;;;;5091061;28;20081;-78
2022/07/16 06:19:44;;;;;;;5.47;2.38;;;14.80;99.90;;;;;;5076017;28;20055;-78
2022/07/16 06:22:10;;;;;;;5.90;2.53;;;14.80;99.90;;;;;;5096728;28;20044;-79
2022/07/16 06:24:36;;;;;;;9.80;2.13;;;14.70;99.90;;;;;;5069529;28;20450;-79
2022/07/16 06:27:03;;;;;;;5.03;2.50;;;15.00;99.90;;;;;;5080773;28;20040;-79
2022/07/16 06:29:29;;;;;;;6.47;2.10;;;14.80;99.90;;;;;;5075272;28;20044;-78
2022/07/16 06:31:55;;;;;;;6.90;2.33;;;14.90;99.90;;;;;;5089002;28;20067;-79
2022/07/16 06:34:21;;;;;;;5.38;2.00;;;15.00;99.90;;;;;;5072732;28;20131;-78
2022/07/16 06:36:47;;;;;;;7.05;2.25;;;15.10;99.90;;;;;;5090916;28;20152;-79
2022/07/16 06:39:13;;;;;;;5.78;2.20;;;15.20;99.90;;;;;;5070686;28;20036;-78
2022/07/16 06:41:39;;;;;;;4.53;1.98;;;15.30;99.90;;;;;;5072224;28;20482;-79
2022/07/16 06:44:06;;;;;;;6.80;2.05;;;15.40;99.90;;;;;;5095796;28;20467;-79
2022/07/16 06:46:32;;;;;;;5.53;1.63;;;15.40;99.90;;;;;;5084050;28;20047;-79
2022/07/16 06:48:58;;;;;;;6.57;2.30;;;15.50;99.90;;;;;;5056089;28;20039;-79
2022/07/16 06:51:26;;;;;;;9.10;2.00;;;15.60;99.90;;;;;;5054310;28;20037;-79
2022/07/16 06:53:52;;;;;;;7.68;1.73;;;15.60;99.90;;;;;;5090827;28;20110;-79
2022/07/16 06:56:17;;;;;;;4.30;1.63;;;15.60;99.90;;;;;;5040090;28;20114;-79
2022/07/16 06:58:43;;;;;;;5.65;1.67;;;15.60;99.90;;;;;;5070323;28;20497;-80
2022/07/16 07:01:10;;;;;;;6.72;1.60;;;15.70;99.90;;;;;;5072386;28;20040;-79
2022/07/16 07:03:40;;;;;;;8.05;2.13;;;15.70;99.90;;;;;;5071897;28;20024;-79
2022/07/16 07:06:06;;;;;;;6.65;1.73;;;15.70;99.90;;;;;;5071970;28;20040;-79
2022/07/16 07:08:32;;;;;;;9.32;2.28;;;15.70;99.90;;;;;;5068558;28;20063;-79
2022/07/16 07:10:59;;;;;;;7.25;1.95;;;15.80;99.90;;;;;;5065134;28;20099;-79
2022/07/16 07:13:30;;;;;;;7.13;1.60;;;15.80;99.90;;;;;;5088380;28;20126;-78
2022/07/16 07:15:57;;;;;;;6.68;1.88;;;15.70;99.90;;;;;;5065571;28;20044;-80
2022/07/16 07:18:23;;;;;;;6.95;1.70;;;15.70;99.90;;;;;;5085445;28;20078;-77
2022/07/16 07:20:49;;;;;;;10.20;2.03;;;15.80;99.90;;;;;;5069682;28;20381;-79
2022/07/16 07:23:15;;;;;;;8.25;1.60;;;16.00;99.90;;;;;;5080615;28;20036;-78
2022/07/16 07:25:41;;;;;;;6.30;1.50;;;16.10;99.90;;;;;;5039027;28;20036;-79
2022/07/16 07:28:07;;;;;;;3.67;1.40;;;16.20;99.90;;;;;;5074975;28;20568;-80
2022/07/16 07:30:33;;;;;;;5.57;1.30;;;16.30;99.90;;;;;;5051769;28;20057;-78
2022/07/16 07:33:00;;;;;;;4.35;1.50;;;16.40;99.90;;;;;;5039783;28;20052;-78
2022/07/16 07:35:26;;;;;;;6.05;1.40;;;16.50;99.90;;;;;;5067512;28;20090;-79
2022/07/16 07:37:52;;;;;;;4.97;1.27;;;16.70;99.90;;;;;;5063114;28;20119;-78
2022/07/16 07:40:18;;;;;;;4.72;1.60;;;16.80;99.90;;;;;;5063614;28;20089;-79
2022/07/16 07:42:44;;;;;;;5.68;1.67;;;16.80;99.90;;;;;;5061174;28;20048;-78
2022/07/16 07:45:11;;;;;;;4.22;1.30;;;16.80;99.90;;;;;;5065720;28;20043;-78
2022/07/16 07:47:37;;;;;;;5.10;1.65;;;16.80;99.90;;;;;;5028613;28;20383;-78
2022/07/16 07:50:05;;;;;;;4.13;1.50;;;16.90;99.90;;;;;;5048983;28;20036;-76
2022/07/16 07:52:31;;;;;;;3.58;1.23;;;17.10;99.90;;;;;;5062448;28;20066;-78
2022/07/16 07:54:56;;;;;;;5.72;1.23;;;17.20;99.90;;;;;;5049356;28;20129;-77
2022/07/16 07:57:22;;;;;;;5.05;1.65;;;17.20;99.90;;;;;;5034894;28;20043;-77
2022/07/16 07:59:48;;;;;;;8.13;1.42;;;17.20;99.90;;;;;;5044957;28;20044;-77
2022/07/16 08:02:13;;;;;;;4.50;1.38;;;17.40;99.90;;;;;;5067071;28;20087;-78
2022/07/16 08:04:39;;;;;;;4.18;1.45;;;17.60;99.90;;;;;;5065812;28;20574;-77
2022/07/16 08:07:05;;;;;;;2.90;1.05;;;17.70;99.90;;;;;;5049087;28;20082;-76
2022/07/16 08:09:31;;;;;;;5.28;1.13;;;17.80;99.90;;;;;;5076271;28;20422;-76
2022/07/16 08:11:57;;;;;;;4.45;1.60;;;17.80;99.90;;;;;;5066145;28;20422;-77
2022/07/16 08:14:22;;;;;;;3.88;1.48;;;17.60;99.90;;;;;;5057158;28;20048;-77
2022/07/16 08:16:48;;;;;;;4.30;1.20;;;17.50;99.90;;;;;;5055961;28;20112;-77
2022/07/16 08:19:14;;;;;;;8.70;1.63;;;17.30;99.90;;;;;;5065656;28;20036;-76
2022/07/16 08:21:40;;;;;;;3.90;1.42;;;17.10;99.90;;;;;;5065372;28;20040;-77
2022/07/16 08:26:51;;;;;;;6.80;1.60;;;16.90;99.90;;;;;;5070414;28;20032;-77
2022/07/16 08:29:17;;;;;;;4.80;1.42;;;16.70;99.90;;;;;;5050698;28;20043;-77
2022/07/16 08:31:42;;;;;;;3.78;1.17;;;16.60;99.90;;;;;;5048060;28;20052;-77
2022/07/16 08:34:08;;;;;;;5.57;1.42;;;16.80;99.90;;;;;;5065769;28;20032;-77
2022/07/16 08:36:34;;;;;;;5.10;1.90;;;17.00;99.90;;;;;;5071106;28;20047;-76
2022/07/16 08:39:00;;;;;;;2.72;1.05;;;17.10;99.90;;;;;;5066018;28;20048;-76
2022/07/16 08:41:26;;;;;;;2.38;1.20;;;17.30;99.90;;;;;;5071486;28;20437;-76
2022/07/16 08:43:53;;;;;;;4.63;1.15;;;17.50;99.70;;;;;;5069709;28;20093;-77
2022/07/16 08:46:20;;;;;;;4.88;1.13;;;17.80;99.20;;;;;;5087035;28;20040;-76
2022/07/16 08:48:48;;;;;;;2.47;1.00;;;18.00;99.20;;;;;;5067399;28;20036;-76
2022/07/16 08:51:16;;;;;;;3.63;1.30;;;18.20;98.90;;;;;;5070054;28;20032;-78
2022/07/16 08:53:44;;;;;;;8.55;1.70;;;18.50;96.50;;;;;;5070551;28;20043;-80
2022/07/16 08:56:10;;;;;;;4.55;1.02;;;18.60;96.90;;;;;;5070736;28;20050;-78
2022/07/16 08:58:36;;;;;;;2.92;1.17;;;18.70;96.60;;;;;;5048240;28;20123;-78
2022/07/16 09:01:02;;;;;;;3.10;1.08;;;18.70;95.50;;;;;;5069756;28;20493;-80
2022/07/16 09:03:28;;;;;;;10.68;3.33;;;18.90;95.40;;;;;;5063034;28;20128;-79
2022/07/16 09:05:54;;;;;;;9.40;3.47;;;19.00;95.40;;;;;;5061297;28;20071;-79
2022/07/16 09:08:20;;;;;;;9.48;3.70;;;19.00;95.60;;;;;;5068369;28;20043;-79
2022/07/16 09:10:46;;;;;;;5.50;2.13;;;19.10;95.40;;;;;;5070457;28;20036;-81
2022/07/16 09:13:12;;;;;;;14.63;5.55;;;19.00;96.10;;;;;;5087099;28;20407;-80
2022/07/16 09:15:42;;;;;;;10.35;2.30;;;18.80;95.90;;;;;;5083508;28;20036;-83
2022/07/16 09:18:25;;;;;;;3.55;1.27;;;18.60;95.90;;;;;;5088837;28;20040;-85
2022/07/16 09:20:50;;;;;;;;;;;18.30;94.90;;;;;;5096835;28;20032;-82
2022/07/16 09:23:36;;;;;;;7.47;1.80;;;18.30;93.60;;;;;;5072329;28;19961;-79
2022/07/16 09:26:05;;;;;;;3.75;1.25;;;18.60;95.50;;;;;;5088640;28;20050;-80
2022/07/16 09:28:48;;;;;;;7.75;1.42;;;18.90;95.30;;;;;;5068590;28;20046;-79
2022/07/16 09:31:33;;;;;;;5.80;1.45;;;18.70;94.60;;;;;;5087932;28;20427;-76
2022/07/16 09:34:01;;;;;;;2.83;1.23;;;18.70;94.60;;;;;;5071542;28;20040;-78
2022/07/16 09:36:27;;;;;;;4.10;1.17;;;18.70;95.00;;;;;;5072206;28;20046;-75
2022/07/16 09:38:53;;;;;;;4.35;1.35;;;18.70;95.80;;;;;;5041184;28;20036;-78
2022/07/16 09:41:20;;;;;;;3.08;1.33;;;18.50;95.70;;;;;;5072369;28;20028;-77
2022/07/16 09:43:46;;;;;;;3.20;1.15;;;18.50;95.90;;;;;;5073828;28;20028;-77
2022/07/16 09:46:23;;;;;;;10.15;1.80;;;18.40;95.90;;;;;;5073167;28;20571;-77
2022/07/16 09:48:51;;;;;;;4.78;1.55;;;18.50;95.50;;;;;;5087959;28;20067;-78
2022/07/16 09:51:21;;;;;;;6.15;1.50;;;18.70;96.10;;;;;;5072940;28;20058;-77
2022/07/16 09:53:48;;;;;;;2.97;1.40;;;18.70;95.40;;;;;;5090557;28;20074;-77
2022/07/16 09:56:17;;;;;;;1.95;1.27;;;18.60;95.20;;;;;;5087781;28;20097;-77
2022/07/16 09:58:52;;;;;;;4.88;1.38;;;18.50;95.40;;;;;;5087663;28;20028;-76
2022/07/16 10:01:19;;;;;;;3.63;1.15;;;18.30;95.10;;;;;;5079436;28;20032;-77
2022/07/16 10:03:46;;;;;;;3.72;1.33;;;18.20;96.00;;;;;;5069857;28;20040;-76
2022/07/16 10:06:13;;;;;;;4.10;1.50;;;18.10;96.20;;;;;;5070063;28;20118;-76
2022/07/16 10:08:40;;;;;;;3.72;1.45;;;18.00;96.40;;;;;;5077277;28;20036;-76
2022/07/16 10:11:07;;;;;;;6.60;1.55;;;18.00;96.70;;;;;;5069618;28;20040;-77
2022/07/16 10:13:34;;;;;;;4.60;1.35;;;18.00;97.00;;;;;;5063433;28;20040;-77
2022/07/16 10:16:00;;;;;;;6.60;1.60;;;18.20;97.30;;;;;;5086980;28;20036;-75
2022/07/16 10:18:43;;;;;;;6.72;1.70;;;18.40;97.00;;;;;;5058440;28;20113;-77
2022/07/16 10:21:16;;;;;;;2.30;1.27;;;18.60;97.20;;;;;;5084363;28;20454;-77
2022/07/16 10:23:45;;;;;;;5.38;1.00;;;19.00;97.70;;;;;;5069625;28;20040;-79
2022/07/16 10:26:20;;;;;;;6.93;1.40;;;19.20;97.00;;;;;;5086034;28;20039;-78
2022/07/16 10:28:51;;;;;;;3.22;1.08;;;19.40;96.10;;;;;;5088142;28;20036;-78
2022/07/16 10:32:27;;;;;;;4.07;1.20;;;19.40;96.20;;;;;;5092550;28;20059;-77
2022/07/16 10:34:41;;;;;;;3.72;1.27;;;19.40;96.30;;;;;;5075511;28;20524;-78
2022/07/16 10:37:09;;;;;;;4.13;1.83;;;19.60;95.90;;;;;;5069851;28;20398;-78
2022/07/16 10:39:59;;;;;;;4.00;1.50;;;19.70;96.10;;;;;;5075687;28;20048;-77
2022/07/16 10:42:27;;;;;;;4.97;1.38;;;19.60;95.20;;;;;;5072192;28;20539;-77
2022/07/16 10:44:53;;;;;;;2.78;1.55;;;19.50;95.90;;;;;;5071493;28;20489;-76
2022/07/16 10:47:19;;;;;;;4.82;1.35;;;19.30;95.60;;;;;;5087921;28;20036;-77
2022/07/16 10:49:45;;;;;;;3.55;1.33;;;19.10;95.70;;;;;;5063958;28;20036;-77
2022/07/16 10:52:15;;;;;;;5.18;1.40;;;19.00;95.60;;;;;;5089176;28;20581;-76
2022/07/16 10:54:50;;;;;;;2.92;1.00;;;19.00;94.50;;;;;;5067333;28;20453;-77
2022/07/16 10:57:17;;;;;;;6.15;1.45;;;19.10;94.30;;;;;;5069816;28;20481;-77
2022/07/16 10:59:46;;;;;;;4.85;1.58;;;19.20;94.20;;;;;;5086939;28;20036;-77
2022/07/16 11:02:14;;;;;;;3.20;1.20;;;19.20;94.20;;;;;;5071226;28;20044;-77
2022/07/16 11:04:43;;;;;;;2.50;1.27;;;19.10;93.80;;;;;;5087642;28;20039;-78
2022/07/16 11:07:14;;;;;;;3.75;1.50;;;19.40;94.70;;;;;;5070973;28;20064;-73
2022/07/16 11:09:43;;;;;;;4.35;1.38;;;19.40;93.40;;;;;;5087051;28;20134;-72
2022/07/16 11:12:24;;;;;;;4.13;1.48;;;19.40;93.00;;;;;;5087731;28;20501;-72
2022/07/16 11:14:52;;;;;;;3.80;1.25;;;19.40;93.20;;;;;;5084273;28;20036;-72
2022/07/16 11:17:23;;;;;;;8.80;1.75;;;19.30;93.40;;;;;;5068718;28;20066;-71
2022/07/16 11:19:57;;;;;;;5.63;1.83;;;19.50;92.80;;;;;;5087003;28;20432;-72
2022/07/16 11:22:28;;;;;;;3.30;1.23;;;19.80;93.10;;;;;;5087553;28;20032;-69
2022/07/16 11:24:56;;;;;;;4.43;1.13;;;20.00;92.50;;;;;;5086191;28;20062;-72
2022/07/16 11:27:36;;;;;;;4.57;1.58;;;20.20;91.70;;;;;;5070174;28;20054;-69
2022/07/16 11:30:08;;;;;;;3.55;1.48;;;20.50;91.50;;;;;;5086985;28;20044;-71
2022/07/16 11:32:45;;;;;;;3.15;1.38;;;20.70;91.30;;;;;;5077360;28;20058;-71
2022/07/16 11:35:11;;;;;;;5.18;1.60;;;21.00;90.50;;;;;;5076062;28;20123;-73
2022/07/16 11:37:57;;;;;;;4.32;1.27;;;21.00;90.60;;;;;;5087709;28;20039;-72
2022/07/16 11:40:37;;;;;;;5.70;1.63;;;21.00;87.90;;;;;;5089794;28;20175;-70
2022/07/16 11:43:04;;;;;;;12.98;8.05;;;21.10;90.00;;;;;;5087584;28;20528;-71
2022/07/16 11:45:42;;;;;;;3.97;1.30;;;21.10;90.00;;;;;;5075072;28;20031;-71
2022/07/16 11:48:13;;;;;;;4.95;1.33;;;21.30;90.50;;;;;;5068984;28;20035;-74
2022/07/16 11:50:40;;;;;;;3.38;0.90;;;21.60;88.80;;;;;;5072784;28;20093;-76
2022/07/16 11:53:06;;;;;;;4.15;1.30;;;21.60;87.50;;;;;;5083956;28;20496;-73
2022/07/16 11:55:32;;;;;;;5.32;1.60;;;21.70;87.30;;;;;;5091465;28;20046;-77
2022/07/16 11:57:58;;;;;;;3.95;2.17;;;21.80;86.00;;;;;;5064613;28;20031;-74
2022/07/16 12:00:24;;;;;;;7.43;3.28;;;21.80;85.20;;;;;;5073208;28;20404;-75
2022/07/16 12:02:55;;;;;;;5.25;1.40;;;21.70;84.20;;;;;;5092638;28;20039;-74
2022/07/16 12:05:28;;;;;;;4.90;1.33;;;21.40;83.10;;;;;;5064859;28;20374;-77
2022/07/16 12:07:54;;;;;;;4.07;1.40;;;21.40;84.50;;;;;;5079924;28;20527;-72
2022/07/16 12:10:24;;;;;;;4.32;1.48;;;21.50;85.10;;;;;;5078653;28;20075;-75
2022/07/16 12:13:04;;;;;;;3.30;1.33;;;21.70;83.70;;;;;;5087234;28;20462;-74
2022/07/16 12:15:49;;;;;;;4.25;1.15;;;21.70;82.50;;;;;;5090140;28;20073;-75
2022/07/16 12:18:15;;;;;;;5.57;2.47;;;21.60;83.20;;;;;;5086788;28;20055;-73
2022/07/16 12:20:41;;;;;;;8.82;5.85;;;21.30;83.70;;;;;;5088378;28;20417;-74
2022/07/16 12:23:11;;;;;;;2.85;1.55;;;21.00;85.30;;;;;;5055076;28;20039;-73
2022/07/16 12:25:39;;;;;;;2.65;1.10;;;20.90;86.00;;;;;;5070303;28;20055;-74
2022/07/16 12:28:18;;;;;;;2.97;1.40;;;20.80;85.50;;;;;;5089234;28;20085;-75
2022/07/16 12:31:01;;;;;;;6.28;1.33;;;20.80;85.10;;;;;;5071167;28;20048;-74
2022/07/16 12:33:28;;;;;;;6.70;1.77;;;21.10;85.70;;;;;;5090301;28;20503;-76
2022/07/16 12:35:57;;;;;;;6.00;1.33;;;21.60;85.90;;;;;;5053228;28;20040;-74
2022/07/16 12:38:50;;;;;;;4.82;1.60;;;21.80;85.10;;;;;;5075334;28;20043;-79
2022/07/16 12:41:22;;;;;;;3.95;1.33;;;22.10;82.10;;;;;;5099409;28;20485;-74
2022/07/16 12:43:56;;;;;;;3.05;1.05;;;21.80;83.30;;;;;;5090565;28;20090;-75
2022/07/16 12:46:30;;;;;;;6.63;2.88;;;21.60;82.10;;;;;;5074180;28;20039;-75
2022/07/16 12:49:03;;;;;;;7.53;5.28;;;21.30;82.90;;;;;;5101978;28;20039;-73
2022/07/16 12:51:32;;;;;;;4.22;1.35;;;21.20;82.60;;;;;;5084410;28;20039;-76
2022/07/16 12:54:00;;;;;;;4.47;1.60;;;21.30;82.70;;;;;;5081677;28;20027;-73
2022/07/16 12:59:11;;;;;;;5.25;1.67;;;21.20;82.60;;;;;;5086086;28;20039;-75
2022/07/16 13:01:37;;;;;;;60.17;41.03;;;21.10;83.90;;;;;;5071928;28;20039;-73
2022/07/16 13:04:04;;;;;;;3.65;1.30;;;21.20;84.80;;;;;;5063767;28;20437;-75